Time;durP1;ratioP1;P1;durP2;ratioP2;P2;SDS_P1;SDS_P2;PMS_P1;PMS_P2;Temp;Humidity;BMP_temperature;BMP_pressure;BME280_temperature;BME280_humidity;BME280_pressure;Samples;Min_cycle;Max_cycle;Signal;HPM_P1;HPM_P2
2022/12/21 00:01:48;;;;;;;;;;;;;;;;;;5054867;28;19972;-73
2022/12/21 00:04:15;;;;;;;;;;;;;;;;;;5049734;28;19925;-73
2022/12/21 00:06:42;;;;;;;;;;;;;;;;;;5035146;28;19932;-73
2022/12/21 00:09:11;;;;;;;;;;;;;;;;;;5047079;28;19925;-72
2022/12/21 00:11:38;;;;;;;;;;;;;;;;;;5050870;28;19925;-74
2022/12/21 00:14:06;;;;;;;;;;;;;;;;;;5034845;28;19925;-73
2022/12/21 00:16:33;;;;;;;;;;;;;;;;;;5043728;28;19971;-75
2022/12/21 00:19:00;;;;;;;;;;;;;;;;;;5056486;28;19980;-72
2022/12/21 00:21:28;;;;;;;;;;;;;;;;;;5054509;28;20011;-72
2022/12/21 00:23:58;;;;;;;;;;;;;;;;;;5054583;28;19929;-72
2022/12/21 00:26:24;;;;;;;;;;;;;;;;;;5054609;28;19944;-72
2022/12/21 00:28:53;;;;;;;;;;;;;;;;;;5054387;28;19928;-73
2022/12/21 00:31:22;;;;;;;;;;;;;;;;;;5053859;28;19932;-73
2022/12/21 00:33:48;;;;;;;;;;;;;;;;;;5054514;28;19932;-72
2022/12/21 00:36:15;;;;;;;;;;;;;;;;;;5054000;28;20362;-72
2022/12/21 00:38:42;;;;;;;;;;;;;;;;;;5054232;28;20287;-73
2022/12/21 00:41:11;;;;;;;;;;;;;;;;;;5054208;28;19955;-72
2022/12/21 00:43:38;;;;;;;;;;;;;;;;;;5053987;28;19931;-73
2022/12/21 00:46:05;;;;;;;;;;;;;;;;;;5053814;28;20008;-73
2022/12/21 00:48:34;;;;;;;;;;;;;;;;;;5053843;28;19928;-73
2022/12/21 00:51:03;;;;;;;;;;;;;;;;;;5052423;28;20413;-73
2022/12/21 00:53:30;;;;;;;;;;;;;;;;;;5053812;28;19924;-73
2022/12/21 00:55:56;;;;;;;;;;;;;;;;;;5053789;28;20350;-72
2022/12/21 00:58:23;;;;;;;;;;;;;;;;;;5056672;28;19947;-72
2022/12/21 01:00:50;;;;;;;;;;;;;;;;;;5065651;28;19956;-73
2022/12/21 01:03:16;;;;;;;;;;;;;;;;;;5055849;28;19931;-73
2022/12/21 01:05:47;;;;;;;;;;;;;;;;;;5035800;28;20016;-74
2022/12/21 01:08:13;;;;;;;;;;;;;;;;;;5033583;28;20004;-73
2022/12/21 01:10:40;;;;;;;;;;;;;;;;;;5034310;28;19925;-73
2022/12/21 01:13:06;;;;;;;;;;;;;;;;;;5033546;28;19968;-73
2022/12/21 01:15:33;;;;;;;;;;;;;;;;;;5042884;28;19924;-73
2022/12/21 01:17:59;;;;;;;;;;;;;;;;;;5053360;28;20391;-73
2022/12/21 01:20:26;;;;;;;;;;;;;;;;;;5053408;28;19932;-73
2022/12/21 01:22:53;;;;;;;;;;;;;;;;;;5053345;28;20024;-74
2022/12/21 01:25:20;;;;;;;;;;;;;;;;;;5053198;28;20019;-73
2022/12/21 01:27:46;;;;;;;;;;;;;;;;;;5053340;28;19925;-73
2022/12/21 01:30:13;;;;;;;;;;;;;;;;;;5053290;28;19931;-74
2022/12/21 01:32:39;;;;;;;;;;;;;;;;;;5052906;28;20023;-73
2022/12/21 01:35:06;;;;;;;;;;;;;;;;;;5053476;28;19946;-74
2022/12/21 01:37:32;;;;;;;;;;;;;;;;;;5053229;28;19932;-73
2022/12/21 01:40:00;;;;;;;;;;;;;;;;;;5053194;28;20079;-74
2022/12/21 01:42:26;;;;;;;;;;;;;;;;;;5052611;28;20380;-74
2022/12/21 01:45:02;;;;;;;;;;;;;;;;;;5052782;28;20008;-74
2022/12/21 01:47:31;;;;;;;;;;;;;;;;;;5053124;28;19978;-74
2022/12/21 01:50:00;;;;;;;;;;;;;;;;;;5052754;28;19924;-74
2022/12/21 01:52:28;;;;;;;;;;;;;;;;;;5052711;28;20008;-74
2022/12/21 01:54:56;;;;;;;;;;;;;;;;;;5053040;28;19925;-73
2022/12/21 01:57:25;;;;;;;;;;;;;;;;;;5052622;28;19925;-73
2022/12/21 01:59:53;;;;;;;;;;;;;;;;;;5052693;28;20535;-73
2022/12/21 02:02:22;;;;;;;;;;;;;;;;;;5051946;28;19972;-73
2022/12/21 02:04:50;;;;;;;;;;;;;;;;;;5052878;28;20292;-73
2022/12/21 02:07:17;;;;;;;;;;;;;;;;;;5052632;28;19925;-73
2022/12/21 02:09:44;;;;;;;;;;;;;;;;;;5052639;28;19983;-73
2022/12/21 02:12:13;;;;;;;;;;;;;;;;;;5052055;28;19997;-73
2022/12/21 02:14:42;;;;;;;;;;;;;;;;;;5052666;28;19932;-73
2022/12/21 02:17:11;;;;;;;;;;;;;;;;;;5032417;28;19932;-73
2022/12/21 02:20:04;;;;;;;;;;;;;;;;;;5032659;28;19925;-72
2022/12/21 02:22:43;;;;;;;;;;;;;;;;;;5032047;28;20032;-73
2022/12/21 02:25:30;;;;;;;;;;;;;;;;;;5032334;28;19931;-72
2022/12/21 02:28:11;;;;;;;;;;;;;;;;;;5049837;28;19931;-72
2022/12/21 02:30:52;;;;;;;;;;;;;;;;;;5048922;28;19936;-73
2022/12/21 02:33:24;;;;;;;;;;;;;;;;;;5052254;28;19925;-73
2022/12/21 02:35:56;;;;;;;;;;;;;;;;;;5052316;28;19979;-73
2022/12/21 02:38:32;;;;;;;;;;;;;;;;;;5052298;28;19928;-72
2022/12/21 02:41:01;;;;;;;;;;;;;;;;;;5052223;28;19931;-73
2022/12/21 02:46:21;;;;;;;;;;;;;;;;;;5052082;28;20013;-73
2022/12/21 02:48:49;;;;;;;;;;;;;;;;;;5051822;28;19932;-72
2022/12/21 02:51:20;;;;;;;;;;;;;;;;;;5052179;28;19931;-73
2022/12/21 02:53:46;;;;;;;;;;;;;;;;;;5052063;28;19940;-72
2022/12/21 02:56:16;;;;;;;;;;;;;;;;;;5051873;28;20015;-72
2022/12/21 03:01:16;;;;;;;;;;;;;;;;;;5095044;22;19924;-49
2022/12/21 03:03:53;;;;;;;;;;;;;;;;;;5072210;28;19950;-50
2022/12/21 03:06:32;;;;;;;;;;;;;;;;;;5072273;28;20392;-48
2022/12/21 03:09:06;;;;;;;;;;;;;;;;;;5072280;28;19990;-48
2022/12/21 03:11:36;;;;;;;;;;;;;;;;;;5072040;28;20335;-51
2022/12/21 03:14:06;;;;;;;;;;;;;;;;;;5074354;28;20603;-48
2022/12/21 03:16:38;;;;;;;;;;;;;;;;;;5075918;28;19924;-49
2022/12/21 03:19:09;;;;;;;;;;;;;;;;;;5075856;28;20000;-50
2022/12/21 03:21:38;;;;;;;;;;;;;;;;;;5076249;28;19924;-49
2022/12/21 03:24:08;;;;;;;;;;;;;;;;;;5076134;28;19993;-49
2022/12/21 03:26:37;;;;;;;;;;;;;;;;;;5076165;28;19947;-51
2022/12/21 03:29:04;;;;;;;;;;;;;;;;;;5075783;28;19932;-47
2022/12/21 03:31:33;;;;;;;;;;;;;;;;;;5075600;28;19925;-49
2022/12/21 03:34:03;;;;;;;;;;;;;;;;;;5075770;28;19946;-49
2022/12/21 03:36:33;;;;;;;;;;;;;;;;;;5075852;28;19971;-53
2022/12/21 03:39:01;;;;;;;;;;;;;;;;;;5075734;28;19939;-52
2022/12/21 03:41:30;;;;;;;;;;;;;;;;;;5075479;28;19925;-50
2022/12/21 03:44:00;;;;;;;;;;;;;;;;;;5075333;28;19924;-48
2022/12/21 03:46:29;;;;;;;;;;;;;;;;;;5075447;28;20037;-50
2022/12/21 03:48:57;;;;;;;;;;;;;;;;;;5075358;28;20380;-47
2022/12/21 03:51:27;;;;;;;;;;;;;;;;;;5075243;28;19982;-50
2022/12/21 03:53:59;;;;;;;;;;;;;;;;;;5075155;28;19932;-49
2022/12/21 03:56:28;;;;;;;;;;;;;;;;;;5075021;28;19973;-49
2022/12/21 03:58:55;;;;;;;;;;;;;;;;;;5075045;28;19995;-49
2022/12/21 04:01:26;;;;;;;;;;;;;;;;;;5074873;28;19970;-51
2022/12/21 04:03:55;;;;;;;;;;;;;;;;;;5075485;28;20317;-49
2022/12/21 04:06:23;;;;;;;;;;;;;;;;;;5075007;28;19932;-50
2022/12/21 04:08:49;;;;;;;;;;;;;;;;;;5075245;28;19997;-48
2022/12/21 04:14:20;;;;;;;;;;;;;;;;;;5063408;28;20049;-48
2022/12/21 04:16:47;;;;;;;;;;;;;;;;;;5054652;28;19929;-48
2022/12/21 04:21:57;;;;;;;;;;;;;;;;;;5054793;28;19931;-49
2022/12/21 04:30:17;;;;;;;;;;;;;;;;;;5070734;28;19923;-50
2022/12/21 04:38:32;;;;;;;;;;;;;;;;;;5054546;28;19932;-49
2022/12/21 04:40:59;;;;;;;;;;;;;;;;;;5054132;28;19924;-47
2022/12/21 04:43:26;;;;;;;;;;;;;;;;;;5054471;28;19986;-48
2022/12/21 04:46:01;;;;;;;;;;;;;;;;;;5070913;28;19924;-48
2022/12/21 04:48:27;;;;;;;;;;;;;;;;;;5074612;28;19982;-51
2022/12/21 04:50:54;;;;;;;;;;;;;;;;;;5065516;28;19929;-49
2022/12/21 04:53:21;;;;;;;;;;;;;;;;;;5054439;28;19975;-51
2022/12/21 04:55:47;;;;;;;;;;;;;;;;;;5054128;28;19971;-48
2022/12/21 04:58:14;;;;;;;;;;;;;;;;;;5054202;28;20401;-49
2022/12/21 05:00:41;;;;;;;;;;;;;;;;;;5053794;28;20369;-52
2022/12/21 05:03:09;;;;;;;;;;;;;;;;;;5053951;28;19929;-49
2022/12/21 05:05:35;;;;;;;;;;;;;;;;;;5053774;28;19978;-49
2022/12/21 05:08:02;;;;;;;;;;;;;;;;;;5053997;28;19978;-52
2022/12/21 05:10:29;;;;;;;;;;;;;;;;;;5053893;28;19925;-50
2022/12/21 05:12:55;;;;;;;;;;;;;;;;;;5054091;28;19925;-49
2022/12/21 05:15:22;;;;;;;;;;;;;;;;;;5053630;28;20282;-50
2022/12/21 05:17:48;;;;;;;;;;;;;;;;;;5053800;28;20404;-52
2022/12/21 05:20:16;;;;;;;;;;;;;;;;;;5053427;28;19925;-48
2022/12/21 05:22:44;;;;;;;;;;;;;;;;;;5054262;28;20436;-51
2022/12/21 05:25:11;;;;;;;;;;;;;;;;;;5053600;28;19929;-50
2022/12/21 05:27:37;;;;;;;;;;;;;;;;;;5053552;28;19929;-47
2022/12/21 05:30:05;;;;;;;;;;;;;;;;;;5053475;28;19986;-47
2022/12/21 05:32:31;;;;;;;;;;;;;;;;;;5053727;28;19940;-48
2022/12/21 05:34:58;;;;;;;;;;;;;;;;;;5053473;28;19925;-51
2022/12/21 05:37:27;;;;;;;;;;;;;;;;;;5053031;28;19947;-48
2022/12/21 05:39:53;;;;;;;;;;;;;;;;;;5053824;28;20439;-51
2022/12/21 05:42:23;;;;;;;;;;;;;;;;;;5053382;28;20468;-49
2022/12/21 05:44:49;;;;;;;;;;;;;;;;;;5053491;28;19924;-50
2022/12/21 05:47:16;;;;;;;;;;;;;;;;;;5053459;28;20393;-49
2022/12/21 05:49:42;;;;;;;;;;;;;;;;;;5053230;28;19925;-53
2022/12/21 05:52:09;;;;;;;;;;;;;;;;;;5053207;28;19948;-52
2022/12/21 05:54:37;;;;;;;;;;;;;;;;;;5053167;28;19925;-50
2022/12/21 05:57:03;;;;;;;;;;;;;;;;;;5052791;28;19951;-50
2022/12/21 05:59:30;;;;;;;;;;;;;;;;;;5053045;28;20340;-51
2022/12/21 06:01:56;;;;;;;;;;;;;;;;;;5052893;28;19925;-51
2022/12/21 06:04:23;;;;;;;;;;;;;;;;;;5052939;28;20382;-49
2022/12/21 06:06:50;;;;;;;;;;;;;;;;;;5053181;28;19946;-50
2022/12/21 06:09:16;;;;;;;;;;;;;;;;;;5053136;28;19929;-50
2022/12/21 06:11:44;;;;;;;;;;;;;;;;;;5053059;28;19999;-49
2022/12/21 06:14:11;;;;;;;;;;;;;;;;;;5052805;28;20408;-50
2022/12/21 06:16:37;;;;;;;;;;;;;;;;;;5052670;28;19924;-51
2022/12/21 06:19:04;;;;;;;;;;;;;;;;;;5052632;28;19928;-53
2022/12/21 06:21:30;;;;;;;;;;;;;;;;;;5052577;28;19971;-49
2022/12/21 06:23:57;;;;;;;;;;;;;;;;;;5052738;28;20344;-49
2022/12/21 06:26:23;;;;;;;;;;;;;;;;;;5052349;28;19925;-50
2022/12/21 06:28:52;;;;;;;;;;;;;;;;;;5052548;28;19932;-49
2022/12/21 06:31:19;;;;;;;;;;;;;;;;;;5052105;28;19924;-49
2022/12/21 06:33:46;;;;;;;;;;;;;;;;;;5052665;28;20416;-51
2022/12/21 06:36:12;;;;;;;;;;;;;;;;;;5072224;28;19965;-52
2022/12/21 06:38:39;;;;;;;;;;;;;;;;;;5072426;28;19958;-53
2022/12/21 06:41:07;;;;;;;;;;;;;;;;;;5072122;28;19928;-52
2022/12/21 06:43:35;;;;;;;;;;;;;;;;;;5072336;28;19928;-54
2022/12/21 06:46:04;;;;;;;;;;;;;;;;;;5072135;28;19928;-49
2022/12/21 06:48:31;;;;;;;;;;;;;;;;;;5075588;28;20385;-51
2022/12/21 06:50:58;;;;;;;;;;;;;;;;;;5067186;28;19994;-52
2022/12/21 06:53:26;;;;;;;;;;;;;;;;;;5056567;28;20427;-49
2022/12/21 06:55:58;;;;;;;;;;;;;;;;;;5056428;28;19924;-50
2022/12/21 06:58:25;;;;;;;;;;;;;;;;;;5056273;28;19929;-52
2022/12/21 07:00:51;;;;;;;;;;;;;;;;;;5056209;28;19964;-50
2022/12/21 07:03:19;;;;;;;;;;;;;;;;;;5056339;28;19929;-51
2022/12/21 07:05:46;;;;;;;;;;;;;;;;;;5056606;28;19933;-52
2022/12/21 07:08:12;;;;;;;;;;;;;;;;;;5074684;28;19924;-51
2022/12/21 07:10:39;;;;;;;;;;;;;;;;;;5076104;28;19997;-49
2022/12/21 07:13:05;;;;;;;;;;;;;;;;;;5075959;28;19974;-49
2022/12/21 07:15:32;;;;;;;;;;;;;;;;;;5075835;28;19924;-51
2022/12/21 07:17:59;;;;;;;;;;;;;;;;;;5075884;28;19925;-48
2022/12/21 07:20:27;;;;;;;;;;;;;;;;;;5075783;28;20363;-50
2022/12/21 07:22:53;;;;;;;;;;;;;;;;;;5075783;28;19924;-50
2022/12/21 07:25:20;;;;;;;;;;;;;;;;;;5075385;28;20351;-49
2022/12/21 07:27:46;;;;;;;;;;;;;;;;;;5059782;28;19986;-50
2022/12/21 07:30:13;;;;;;;;;;;;;;;;;;5055435;28;19929;-51
2022/12/21 07:32:40;;;;;;;;;;;;;;;;;;5055542;28;19925;-50
2022/12/21 07:35:09;;;;;;;;;;;;;;;;;;5055516;28;20344;-50
2022/12/21 07:37:37;;;;;;;;;;;;;;;;;;5055383;28;19928;-53
2022/12/21 07:40:04;;;;;;;;;;;;;;;;;;5055461;28;19925;-50
2022/12/21 07:42:31;;;;;;;;;;;;;;;;;;5055650;28;20309;-49
2022/12/21 07:44:58;;;;;;;;;;;;;;;;;;5055385;28;19925;-49
2022/12/21 07:47:24;;;;;;;;;;;;;;;;;;5055286;28;20015;-47
2022/12/21 07:49:51;;;;;;;;;;;;;;;;;;5055223;28;19925;-51
2022/12/21 07:52:17;;;;;;;;;;;;;;;;;;5055089;28;20006;-54
2022/12/21 07:54:46;;;;;;;;;;;;;;;;;;5055315;28;20412;-49
2022/12/21 07:57:12;;;;;;;;;;;;;;;;;;5054977;28;19995;-49
2022/12/21 07:59:39;;;;;;;;;;;;;;;;;;5054368;28;20394;-50
2022/12/21 08:02:06;;;;;;;;;;;;;;;;;;5054892;28;19983;-52
2022/12/21 08:04:32;;;;;;;;;;;;;;;;;;5055065;28;19925;-52
2022/12/21 08:06:59;;;;;;;;;;;;;;;;;;5061257;28;19936;-50
2022/12/21 08:09:25;;;;;;;;;;;;;;;;;;5074741;28;19928;-50
2022/12/21 08:11:53;;;;;;;;;;;;;;;;;;5074875;28;19925;-47
2022/12/21 08:14:20;;;;;;;;;;;;;;;;;;5074946;28;19924;-53
2022/12/21 08:16:46;;;;;;;;;;;;;;;;;;5074711;28;19928;-49
2022/12/21 08:19:13;;;;;;;;;;;;;;;;;;5074738;28;20053;-46
2022/12/21 08:21:40;;;;;;;;;;;;;;;;;;5063750;28;19978;-50
2022/12/21 08:24:06;;;;;;;;;;;;;;;;;;5052439;28;19929;-50
2022/12/21 08:26:33;;;;;;;;;;;;;;;;;;5052819;28;19978;-48
2022/12/21 08:29:01;;;;;;;;;;;;;;;;;;5052719;28;19932;-49
2022/12/21 08:31:28;;;;;;;;;;;;;;;;;;5052772;28;20356;-48
2022/12/21 08:33:55;;;;;;;;;;;;;;;;;;5053010;28;20443;-49
2022/12/21 08:36:22;;;;;;;;;;;;;;;;;;5052557;28;19924;-50
2022/12/21 08:38:49;;;;;;;;;;;;;;;;;;5052416;28;19925;-52
2022/12/21 08:41:16;;;;;;;;;;;;;;;;;;5052608;28;20538;-53
2022/12/21 08:43:42;;;;;;;;;;;;;;;;;;5052625;28;19929;-50
2022/12/21 08:46:11;;;;;;;;;;;;;;;;;;5052482;28;19928;-51
2022/12/21 08:48:38;;;;;;;;;;;;;;;;;;5052359;28;19986;-51
2022/12/21 08:51:05;;;;;;;;;;;;;;;;;;5052364;28;20282;-49
2022/12/21 08:53:32;;;;;;;;;;;;;;;;;;5052242;28;20348;-51
2022/12/21 08:55:58;;;;;;;;;;;;;;;;;;5052330;28;19925;-52
2022/12/21 08:58:25;;;;;;;;;;;;;;;;;;5052239;28;19931;-52
2022/12/21 09:00:52;;;;;;;;;;;;;;;;;;5051825;28;19978;-49
2022/12/21 09:03:19;;;;;;;;;;;;;;;;;;5052296;28;19971;-50
2022/12/21 09:05:46;;;;;;;;;;;;;;;;;;5052506;28;20271;-50
2022/12/21 09:08:13;;;;;;;;;;;;;;;;;;5052086;28;20008;-52
2022/12/21 09:10:40;;;;;;;;;;;;;;;;;;5051370;28;19925;-49
2022/12/21 09:13:06;;;;;;;;;;;;;;;;;;5066084;28;19928;-50
2022/12/21 09:15:33;;;;;;;;;;;;;;;;;;5071782;28;19925;-49
2022/12/21 09:17:59;;;;;;;;;;;;;;;;;;5071765;28;20080;-52
2022/12/21 09:20:27;;;;;;;;;;;;;;;;;;5071885;28;19925;-48
2022/12/21 09:22:54;;;;;;;;;;;;;;;;;;5071937;28;19924;-48
2022/12/21 09:25:21;;;;;;;;;;;;;;;;;;5072109;28;20415;-51
2022/12/21 09:27:47;;;;;;;;;;;;;;;;;;5060131;28;20015;-50
2022/12/21 09:30:14;;;;;;;;;;;;;;;;;;5051654;28;19924;-49
2022/12/21 09:32:40;;;;;;;;;;;;;;;;;;5051691;28;20395;-47
2022/12/21 09:35:07;;;;;;;;;;;;;;;;;;5051518;28;19933;-63
2022/12/21 09:37:35;;;;;;;;;;;;;;;;;;5051493;28;19970;-48
2022/12/21 09:40:01;;;;;;;;;;;;;;;;;;5059644;28;19924;-48
2022/12/21 09:42:34;;;;;;;;;;;;;;;;;;5051440;28;19932;-51
2022/12/21 09:45:08;;;;;;;;;;;;;;;;;;5051342;28;19974;-50
2022/12/21 09:47:40;;;;;;;;;;;;;;;;;;5051631;28;20015;-47
2022/12/21 09:50:11;;;;;;;;;;;;;;;;;;5051403;28;19924;-48
2022/12/21 09:52:42;;;;;;;;;;;;;;;;;;5051211;28;19932;-50
2022/12/21 09:55:14;;;;;;;;;;;;;;;;;;5050964;28;19924;-53
2022/12/21 09:57:40;;;;;;;;;;;;;;;;;;5051073;28;19924;-52
2022/12/21 10:00:14;;;;;;;;;;;;;;;;;;5050907;28;19928;-52
2022/12/21 10:03:00;;;;;;;;;;;;;;;;;;5051093;28;20440;-54
2022/12/21 10:05:37;;;;;;;;;;;;;;;;;;5050990;28;19925;-50
2022/12/21 10:08:14;;;;;;;;;;;;;;;;;;5072028;28;19928;-52
2022/12/21 10:10:46;;;;;;;;;;;;;;;;;;5071467;28;19924;-52
2022/12/21 10:13:20;;;;;;;;;;;;;;;;;;5071594;28;20405;-50
2022/12/21 10:15:52;;;;;;;;;;;;;;;;;;5071358;28;19925;-50
2022/12/21 10:18:21;;;;;;;;;;;;;;;;;;5070838;28;19925;-53
2022/12/21 10:20:51;;;;;;;;;;;;;;;;;;5071332;28;20019;-50
2022/12/21 10:23:22;;;;;;;;;;;;;;;;;;5070846;28;19932;-50
2022/12/21 10:25:50;;;;;;;;;;;;;;;;;;5070965;28;19925;-50
2022/12/21 10:28:35;;;;;;;;;;;;;;;;;;5061708;28;19925;-54
2022/12/21 10:31:04;;;;;;;;;;;;;;;;;;5050603;28;20447;-57
2022/12/21 10:33:31;;;;;;;;;;;;;;;;;;5050256;28;19925;-52
2022/12/21 10:36:00;;;;;;;;;;;;;;;;;;5050528;28;20043;-52
2022/12/21 10:38:29;;;;;;;;;;;;;;;;;;5058366;28;19924;-48
2022/12/21 10:40:56;;;;;;;;;;;;;;;;;;5070403;28;19935;-55
2022/12/21 10:43:23;;;;;;;;;;;;;;;;;;5054688;28;19925;-63
2022/12/21 10:45:49;;;;;;;;;;;;;;;;;;5050410;28;19925;-48
2022/12/21 10:48:16;;;;;;;;;;;;;;;;;;5070482;28;20335;-48
2022/12/21 10:50:44;;;;;;;;;;;;;;;;;;5070233;28;19985;-51
2022/12/21 10:53:19;;;;;;;;;;;;;;;;;;5070279;28;19924;-50
2022/12/21 10:55:47;;;;;;;;;;;;;;;;;;5070256;28;19928;-51
2022/12/21 10:58:18;;;;;;;;;;;;;;;;;;5070393;28;19925;-49
2022/12/21 11:01:03;;;;;;;;;;;;;;;;;;5070080;28;19925;-48
2022/12/21 11:03:31;;;;;;;;;;;;;;;;;;5061953;28;19933;-50
2022/12/21 11:05:58;;;;;;;;;;;;;;;;;;5050681;28;20127;-51
2022/12/21 11:08:28;;;;;;;;;;;;;;;;;;5050703;28;19939;-50
2022/12/21 11:10:58;;;;;;;;;;;;;;;;;;5049409;28;20441;-48
2022/12/21 11:13:26;;;;;;;;;;;;;;;;;;5050405;28;20011;-51
2022/12/21 11:15:54;;;;;;;;;;;;;;;;;;5049940;28;19925;-49
2022/12/21 11:18:31;;;;;;;;;;;;;;;;;;5050139;28;19925;-52
2022/12/21 11:20:57;;;;;;;;;;;;;;;;;;5050099;28;19925;-50
2022/12/21 11:23:24;;;;;;;;;;;;;;;;;;5050078;28;19925;-53
2022/12/21 11:25:51;;;;;;;;;;;;;;;;;;5049958;28;19925;-50
2022/12/21 11:28:20;;;;;;;;;;;;;;;;;;5050168;28;19971;-50
2022/12/21 11:30:52;;;;;;;;;;;;;;;;;;5049798;28;20348;-52
2022/12/21 11:33:19;;;;;;;;;;;;;;;;;;5049893;28;19935;-50
2022/12/21 11:36:00;;;;;;;;;;;;;;;;;;5053484;28;20038;-50
2022/12/21 11:38:34;;;;;;;;;;;;;;;;;;5073177;28;19928;-54
2022/12/21 11:41:00;;;;;;;;;;;;;;;;;;5066526;28;19967;-52
2022/12/21 11:43:28;;;;;;;;;;;;;;;;;;5059929;28;19929;-49
2022/12/21 11:45:57;;;;;;;;;;;;;;;;;;5059776;28;20289;-53
2022/12/21 11:48:28;;;;;;;;;;;;;;;;;;5053282;28;19925;-51
2022/12/21 11:50:58;;;;;;;;;;;;;;;;;;5053574;28;20378;-53
2022/12/21 11:53:35;;;;;;;;;;;;;;;;;;5053349;28;20528;-48
2022/12/21 11:56:11;;;;;;;;;;;;;;;;;;5068212;28;19978;-49
2022/12/21 11:58:47;;;;;;;;;;;;;;;;;;5073926;28;19972;-50
2022/12/21 12:01:16;;;;;;;;;;;;;;;;;;5060079;28;19994;-48
2022/12/21 12:03:51;;;;;;;;;;;;;;;;;;5053224;28;19994;-49
2022/12/21 12:06:35;;;;;;;;;;;;;;;;;;5053382;28;19924;-50
2022/12/21 12:09:12;;;;;;;;;;;;;;;;;;5053657;28;19925;-55
2022/12/21 12:11:44;;;;;;;;;;;;;;;;;;5072886;28;19929;-50
2022/12/21 12:14:21;;;;;;;;;;;;;;;;;;5073109;28;19974;-49
2022/12/21 12:16:53;;;;;;;;;;;;;;;;;;5072917;28;20201;-53
2022/12/21 12:19:24;;;;;;;;;;;;;;;;;;5072741;28;19924;-50
2022/12/21 12:21:58;;;;;;;;;;;;;;;;;;5072788;28;19932;-49
2022/12/21 12:24:33;;;;;;;;;;;;;;;;;;5064292;28;19974;-51
2022/12/21 12:27:03;;;;;;;;;;;;;;;;;;5052993;28;19925;-49
2022/12/21 12:29:40;;;;;;;;;;;;;;;;;;5052158;28;19986;-51
2022/12/21 12:32:20;;;;;;;;;;;;;;;;;;5052600;28;20011;-51
2022/12/21 12:34:53;;;;;;;;;;;;;;;;;;5064609;28;19928;-49
2022/12/21 12:37:26;;;;;;;;;;;;;;;;;;5057965;28;19929;-50
2022/12/21 12:39:58;;;;;;;;;;;;;;;;;;5053418;28;19986;-51
2022/12/21 12:42:27;;;;;;;;;;;;;;;;;;5052543;28;19925;-48
2022/12/21 12:45:00;;;;;;;;;;;;;;;;;;5052198;28;20382;-49
2022/12/21 12:47:31;;;;;;;;;;;;;;;;;;5052657;28;20241;-49
2022/12/21 12:50:10;;;;;;;;;;;;;;;;;;5060007;28;19928;-50
2022/12/21 12:52:44;;;;;;;;;;;;;;;;;;5063321;28;19970;-50
2022/12/21 12:55:14;;;;;;;;;;;;;;;;;;5072106;28;19986;-50
2022/12/21 12:57:45;;;;;;;;;;;;;;;;;;5072058;28;19931;-50
2022/12/21 13:00:15;;;;;;;;;;;;;;;;;;5071810;28;20344;-51
2022/12/21 13:02:44;;;;;;;;;;;;;;;;;;5070694;28;20285;-51
2022/12/21 13:05:16;;;;;;;;;;;;;;;;;;5063163;28;19924;-50
2022/12/21 13:07:45;;;;;;;;;;;;;;;;;;5053189;28;19925;-50
2022/12/21 13:10:15;;;;;;;;;;;;;;;;;;5056161;28;19929;-52
2022/12/21 13:12:47;;;;;;;;;;;;;;;;;;5051649;28;20022;-49
2022/12/21 13:15:18;;;;;;;;;;;;;;;;;;5052009;28;20344;-49
2022/12/21 13:17:47;;;;;;;;;;;;;;;;;;5051710;28;19986;-48
2022/12/21 13:20:17;;;;;;;;;;;;;;;;;;5051363;28;20042;-48
2022/12/21 13:22:44;;;;;;;;;;;;;;;;;;5051098;28;19986;-49
2022/12/21 13:25:16;;;;;;;;;;;;;;;;;;5051510;28;19974;-46
2022/12/21 13:27:43;;;;;;;;;;;;;;;;;;5051618;28;19928;-47
2022/12/21 13:30:12;;;;;;;;;;;;;;;;;;5051495;28;19932;-52
2022/12/21 13:32:41;;;;;;;;;;;;;;;;;;5051216;28;20343;-49
2022/12/21 13:35:17;;;;;;;;;;;;;;;;;;5051381;28;19925;-50
2022/12/21 13:37:45;;;;;;;;;;;;;;;;;;5051564;28;19986;-51
2022/12/21 13:40:15;;;;;;;;;;;;;;;;;;5051514;28;20432;-50
2022/12/21 13:42:46;;;;;;;;;;;;;;;;;;5051317;28;19936;-50
2022/12/21 13:45:20;;;;;;;;;;;;;;;;;;5051929;28;20157;-50
2022/12/21 13:47:50;;;;;;;;;;;;;;;;;;5051592;28;19924;-51
2022/12/21 13:50:23;;;;;;;;;;;;;;;;;;5051341;28;19925;-50
2022/12/21 13:52:53;;;;;;;;;;;;;;;;;;5051118;28;19929;-53
2022/12/21 13:55:30;;;;;;;;;;;;;;;;;;5051180;28;20110;-49
2022/12/21 13:58:00;;;;;;;;;;;;;;;;;;5050270;28;20362;-50
2022/12/21 14:03:35;;;;;;;;;;;;;;;;;;5050363;28;20074;-50
2022/12/21 14:06:09;;;;;;;;;;;;;;;;;;5050976;28;19932;-49
2022/12/21 14:08:41;;;;;;;;;;;;;;;;;;5050887;28;20404;-48
2022/12/21 14:11:17;;;;;;;;;;;;;;;;;;5050482;28;20017;-49
2022/12/21 14:13:52;;;;;;;;;;;;;;;;;;5050589;28;19960;-48
2022/12/21 14:16:22;;;;;;;;;;;;;;;;;;5050883;28;19975;-51
2022/12/21 14:18:54;;;;;;;;;;;;;;;;;;5050659;28;19979;-52
2022/12/21 14:21:22;;;;;;;;;;;;;;;;;;5050396;28;19975;-48
2022/12/21 14:23:50;;;;;;;;;;;;;;;;;;5050809;28;20297;-51
2022/12/21 14:26:34;;;;;;;;;;;;;;;;;;5050766;28;19929;-50
2022/12/21 14:29:03;;;;;;;;;;;;;;;;;;5050735;28;19998;-50
2022/12/21 14:31:31;;;;;;;;;;;;;;;;;;5050654;28;19925;-48
2022/12/21 14:33:59;;;;;;;;;;;;;;;;;;5051013;28;20263;-48
2022/12/21 14:36:28;;;;;;;;;;;;;;;;;;5050774;28;19925;-51
2022/12/21 14:39:28;;;;;;;;;;;;;;;;;;5050108;28;20511;-50
2022/12/21 14:42:14;;;;;;;;;;;;;;;;;;4988524;28;19949;-53
2022/12/21 14:44:55;;;;;;;;;;;;;;;;;;4988442;28;19926;-49
2022/12/21 14:47:23;;;;;;;;;;;;;;;;;;5029468;28;19931;-49
2022/12/21 14:49:51;;;;;;;;;;;;;;;;;;5049987;28;20107;-48
2022/12/21 14:52:27;;;;;;;;;;;;;;;;;;5050243;28;19925;-49
2022/12/21 14:55:06;;;;;;;;;;;;;;;;;;5050382;28;19925;-51
2022/12/21 14:57:37;;;;;;;;;;;;;;;;;;5050459;28;19990;-50
2022/12/21 15:00:06;;;;;;;;;;;;;;;;;;5050075;28;19925;-51
2022/12/21 15:02:38;;;;;;;;;;;;;;;;;;5050136;28;20382;-50
2022/12/21 15:05:13;;;;;;;;;;;;;;;;;;5050542;28;20022;-50
2022/12/21 15:07:43;;;;;;;;;;;;;;;;;;5050668;28;20293;-48
2022/12/21 15:10:16;;;;;;;;;;;;;;;;;;5052303;28;19935;-50
2022/12/21 15:12:45;;;;;;;;;;;;;;;;;;5054559;28;19951;-53
2022/12/21 15:15:22;;;;;;;;;;;;;;;;;;5054545;28;19979;-51
2022/12/21 15:17:48;;;;;;;;;;;;;;;;;;5054278;28;20015;-52
2022/12/21 15:20:30;;;;;;;;;;;;;;;;;;5054531;28;19924;-50
2022/12/21 15:22:58;;;;;;;;;;;;;;;;;;5053221;28;19971;-49
2022/12/21 15:25:25;;;;;;;;;;;;;;;;;;5054135;28;19924;-57
2022/12/21 15:27:56;;;;;;;;;;;;;;;;;;5054015;28;19979;-51
2022/12/21 15:30:24;;;;;;;;;;;;;;;;;;5053744;28;19924;-51
2022/12/21 15:32:53;;;;;;;;;;;;;;;;;;5053769;28;19933;-53
2022/12/21 15:35:24;;;;;;;;;;;;;;;;;;5053434;28;20373;-52
2022/12/21 15:37:51;;;;;;;;;;;;;;;;;;5059562;28;20397;-57
2022/12/21 15:40:21;;;;;;;;;;;;;;;;;;5063967;28;19925;-61
2022/12/21 15:42:51;;;;;;;;;;;;;;;;;;5067238;28;19925;-50
2022/12/21 15:45:21;;;;;;;;;;;;;;;;;;5073690;28;19982;-50
2022/12/21 15:47:51;;;;;;;;;;;;;;;;;;5073790;28;20389;-49
2022/12/21 15:50:19;;;;;;;;;;;;;;;;;;5070058;28;20330;-48
2022/12/21 15:52:50;;;;;;;;;;;;;;;;;;5061904;28;19982;-48
2022/12/21 15:55:17;;;;;;;;;;;;;;;;;;5073723;28;20385;-50
2022/12/21 15:57:46;;;;;;;;;;;;;;;;;;5059173;28;19929;-48
2022/12/21 16:00:14;;;;;;;;;;;;;;;;;;5073235;28;20298;-52
2022/12/21 16:02:43;;;;;;;;;;;;;;;;;;5073447;28;20023;-52
2022/12/21 16:05:12;;;;;;;;;;;;;;;;;;5069730;28;19978;-45
2022/12/21 16:07:43;;;;;;;;;;;;;;;;;;5053158;28;19978;-45
2022/12/21 16:10:14;;;;;;;;;;;;;;;;;;5053172;28;19968;-50
2022/12/21 16:12:41;;;;;;;;;;;;;;;;;;5053110;28;19971;-49
2022/12/21 16:15:24;;;;;;;;;;;;;;;;;;5053345;28;19932;-54
2022/12/21 16:18:03;;;;;;;;;;;;;;;;;;5051518;28;19932;-49
2022/12/21 16:20:31;;;;;;;;;;;;;;;;;;5052353;28;19995;-51
2022/12/21 16:22:58;;;;;;;;;;;;;;;;;;5069785;28;19924;-49
2022/12/21 16:25:26;;;;;;;;;;;;;;;;;;5073271;28;20373;-50
2022/12/21 16:27:53;;;;;;;;;;;;;;;;;;5057813;28;19994;-51
2022/12/21 16:30:20;;;;;;;;;;;;;;;;;;5052803;28;20346;-51
2022/12/21 16:32:47;;;;;;;;;;;;;;;;;;5059538;28;19932;-54
2022/12/21 16:35:18;;;;;;;;;;;;;;;;;;5059122;28;19929;-50
2022/12/21 16:37:44;;;;;;;;;;;;;;;;;;5052692;28;19925;-59
2022/12/21 16:40:17;;;;;;;;;;;;;;;;;;5052695;28;19972;-51
2022/12/21 16:42:44;;;;;;;;;;;;;;;;;;5052746;28;20451;-52
2022/12/21 16:45:47;;;;;;;;;;;;;;;;;;5052420;28;19925;-53
2022/12/21 16:48:19;;;;;;;;;;;;;;;;;;5052120;28;20011;-52
2022/12/21 16:50:48;;;;;;;;;;;;;;;;;;5054267;28;19983;-52
2022/12/21 16:53:29;;;;;;;;;;;;;;;;;;5071875;28;19924;-51
2022/12/21 16:56:11;;;;;;;;;;;;;;;;;;5071586;28;19940;-49
2022/12/21 16:58:38;;;;;;;;;;;;;;;;;;5071541;28;20409;-52
2022/12/21 17:01:05;;;;;;;;;;;;;;;;;;5071740;28;19924;-55
2022/12/21 17:03:33;;;;;;;;;;;;;;;;;;5071860;28;19925;-49
2022/12/21 17:06:01;;;;;;;;;;;;;;;;;;5051991;28;19929;-50
2022/12/21 17:08:30;;;;;;;;;;;;;;;;;;5051836;28;20328;-50
2022/12/21 17:11:01;;;;;;;;;;;;;;;;;;5051549;28;19932;-50
2022/12/21 17:13:28;;;;;;;;;;;;;;;;;;5051285;28;20441;-52
2022/12/21 17:15:58;;;;;;;;;;;;;;;;;;5051698;28;20378;-51
2022/12/21 17:18:41;;;;;;;;;;;;;;;;;;5051352;28;19948;-50
2022/12/21 17:21:25;;;;;;;;;;;;;;;;;;5048895;28;19970;-51
2022/12/21 17:23:53;;;;;;;;;;;;;;;;;;5051730;28;19925;-50
2022/12/21 17:26:30;;;;;;;;;;;;;;;;;;5051543;28;19925;-48
2022/12/21 17:28:56;;;;;;;;;;;;;;;;;;5051324;28;20337;-53